sensor_id;sensor_type;location;lat;lon;timestamp;P1;durP1;ratioP1;P2;durP2;ratioP2
26963;SDS011;14521;48.148;-1.656;2022-09-29T00:00:22;1.33;;;0.22;;
26963;SDS011;14521;48.148;-1.656;2022-09-29T00:03:44;2.30;;;0.40;;
26963;SDS011;14521;48.148;-1.656;2022-09-29T00:07:06;3.13;;;0.22;;
26963;SDS011;14521;48.148;-1.656;2022-09-29T00:10:28;0.52;;;0.20;;
26963;SDS011;14521;48.148;-1.656;2022-09-29T00:13:51;3.50;;;0.50;;
26963;SDS011;14521;48.148;-1.656;2022-09-29T00:17:13;0.50;;;0.20;;
26963;SDS011;14521;48.148;-1.656;2022-09-29T00:20:36;1.58;;;0.30;;
26963;SDS011;14521;48.148;-1.656;2022-09-29T00:23:59;3.47;;;0.50;;
26963;SDS011;14521;48.148;-1.656;2022-09-29T00:27:22;1.00;;;0.32;;
26963;SDS011;14521;48.148;-1.656;2022-09-29T00:30:44;1.10;;;0.20;;
26963;SDS011;14521;48.148;-1.656;2022-09-29T00:34:06;0.25;;;0.10;;
26963;SDS011;14521;48.148;-1.656;2022-09-29T00:37:28;0.60;;;0.30;;
26963;SDS011;14521;48.148;-1.656;2022-09-29T00:40:51;1.02;;;0.20;;
26963;SDS011;14521;48.148;-1.656;2022-09-29T00:47:36;0.50;;;0.30;;
26963;SDS011;14521;48.148;-1.656;2022-09-29T00:51:00;1.50;;;0.30;;
26963;SDS011;14521;48.148;-1.656;2022-09-29T00:54:23;2.42;;;0.25;;
26963;SDS011;14521;48.148;-1.656;2022-09-29T00:57:52;0.28;;;0.13;;
26963;SDS011;14521;48.148;-1.656;2022-09-29T01:01:23;0.98;;;0.30;;
26963;SDS011;14521;48.148;-1.656;2022-09-29T01:04:49;0.82;;;0.22;;
26963;SDS011;14521;48.148;-1.656;2022-09-29T01:08:15;0.25;;;0.20;;
26963;SDS011;14521;48.148;-1.656;2022-09-29T01:11:45;0.90;;;0.22;;
26963;SDS011;14521;48.148;-1.656;2022-09-29T01:15:08;0.38;;;0.20;;
26963;SDS011;14521;48.148;-1.656;2022-09-29T01:18:30;1.10;;;0.30;;
26963;SDS011;14521;48.148;-1.656;2022-09-29T01:21:59;1.55;;;0.40;;
26963;SDS011;14521;48.148;-1.656;2022-09-29T01:25:53;1.13;;;0.60;;
26963;SDS011;14521;48.148;-1.656;2022-09-29T01:33:20;0.63;;;0.45;;
26963;SDS011;14521;48.148;-1.656;2022-09-29T01:36:47;0.47;;;0.30;;
26963;SDS011;14521;48.148;-1.656;2022-09-29T01:40:33;1.35;;;0.20;;
26963;SDS011;14521;48.148;-1.656;2022-09-29T01:48:04;3.25;;;0.20;;
26963;SDS011;14521;48.148;-1.656;2022-09-29T01:51:52;2.38;;;0.15;;
26963;SDS011;14521;48.148;-1.656;2022-09-29T01:55:19;1.33;;;0.40;;
26963;SDS011;14521;48.148;-1.656;2022-09-29T02:02:11;1.88;;;0.20;;
26963;SDS011;14521;48.148;-1.656;2022-09-29T02:09:18;0.95;;;0.20;;
26963;SDS011;14521;48.148;-1.656;2022-09-29T02:12:46;1.48;;;0.25;;
26963;SDS011;14521;48.148;-1.656;2022-09-29T02:16:10;2.72;;;0.20;;
26963;SDS011;14521;48.148;-1.656;2022-09-29T02:19:37;0.95;;;0.20;;
26963;SDS011;14521;48.148;-1.656;2022-09-29T02:23:02;2.20;;;0.30;;
26963;SDS011;14521;48.148;-1.656;2022-09-29T02:26:26;0.80;;;0.20;;
26963;SDS011;14521;48.148;-1.656;2022-09-29T02:29:51;0.68;;;0.10;;
26963;SDS011;14521;48.148;-1.656;2022-09-29T02:33:21;0.47;;;0.20;;
26963;SDS011;14521;48.148;-1.656;2022-09-29T02:36:54;0.90;;;0.20;;
26963;SDS011;14521;48.148;-1.656;2022-09-29T02:40:42;0.75;;;0.40;;
26963;SDS011;14521;48.148;-1.656;2022-09-29T02:44:28;0.68;;;0.20;;
26963;SDS011;14521;48.148;-1.656;2022-09-29T02:51:34;1.67;;;0.20;;
26963;SDS011;14521;48.148;-1.656;2022-09-29T02:55:04;0.35;;;0.20;;
26963;SDS011;14521;48.148;-1.656;2022-09-29T02:58:37;0.57;;;0.40;;
26963;SDS011;14521;48.148;-1.656;2022-09-29T03:02:21;1.85;;;0.20;;
26963;SDS011;14521;48.148;-1.656;2022-09-29T03:05:45;1.50;;;0.40;;
26963;SDS011;14521;48.148;-1.656;2022-09-29T03:09:07;0.98;;;0.20;;
26963;SDS011;14521;48.148;-1.656;2022-09-29T03:12:30;1.05;;;0.40;;
26963;SDS011;14521;48.148;-1.656;2022-09-29T03:15:52;0.30;;;0.13;;
26963;SDS011;14521;48.148;-1.656;2022-09-29T03:19:14;1.88;;;0.30;;
26963;SDS011;14521;48.148;-1.656;2022-09-29T03:22:36;0.85;;;0.20;;
26963;SDS011;14521;48.148;-1.656;2022-09-29T03:25:59;3.42;;;0.32;;
26963;SDS011;14521;48.148;-1.656;2022-09-29T03:29:21;1.10;;;0.20;;
26963;SDS011;14521;48.148;-1.656;2022-09-29T03:32:43;0.13;;;0.10;;
26963;SDS011;14521;48.148;-1.656;2022-09-29T03:36:05;1.52;;;0.13;;
26963;SDS011;14521;48.148;-1.656;2022-09-29T03:39:29;1.00;;;0.43;;
26963;SDS011;14521;48.148;-1.656;2022-09-29T03:42:51;1.65;;;0.30;;
26963;SDS011;14521;48.148;-1.656;2022-09-29T03:46:13;0.60;;;0.30;;
26963;SDS011;14521;48.148;-1.656;2022-09-29T03:49:36;0.65;;;0.20;;
26963;SDS011;14521;48.148;-1.656;2022-09-29T03:52:58;0.80;;;0.40;;
26963;SDS011;14521;48.148;-1.656;2022-09-29T03:56:20;1.45;;;0.20;;
26963;SDS011;14521;48.148;-1.656;2022-09-29T03:59:42;0.93;;;0.50;;
26963;SDS011;14521;48.148;-1.656;2022-09-29T04:03:06;7.65;;;0.25;;
26963;SDS011;14521;48.148;-1.656;2022-09-29T04:06:29;0.55;;;0.20;;
26963;SDS011;14521;48.148;-1.656;2022-09-29T04:09:51;0.98;;;0.15;;
26963;SDS011;14521;48.148;-1.656;2022-09-29T04:13:13;0.25;;;0.20;;
26963;SDS011;14521;48.148;-1.656;2022-09-29T04:16:40;0.30;;;0.15;;
26963;SDS011;14521;48.148;-1.656;2022-09-29T04:20:03;0.55;;;0.17;;
26963;SDS011;14521;48.148;-1.656;2022-09-29T04:23:26;0.75;;;0.30;;
26963;SDS011;14521;48.148;-1.656;2022-09-29T04:26:50;1.08;;;0.13;;
26963;SDS011;14521;48.148;-1.656;2022-09-29T04:30:13;0.47;;;0.20;;
26963;SDS011;14521;48.148;-1.656;2022-09-29T04:33:35;2.25;;;0.20;;
26963;SDS011;14521;48.148;-1.656;2022-09-29T04:36:59;0.30;;;0.15;;
26963;SDS011;14521;48.148;-1.656;2022-09-29T04:40:22;0.70;;;0.20;;
26963;SDS011;14521;48.148;-1.656;2022-09-29T04:43:45;0.43;;;0.20;;
26963;SDS011;14521;48.148;-1.656;2022-09-29T04:47:07;1.40;;;0.28;;
26963;SDS011;14521;48.148;-1.656;2022-09-29T04:50:29;1.02;;;0.20;;
26963;SDS011;14521;48.148;-1.656;2022-09-29T04:53:52;1.75;;;0.20;;
26963;SDS011;14521;48.148;-1.656;2022-09-29T04:57:14;0.47;;;0.20;;
26963;SDS011;14521;48.148;-1.656;2022-09-29T05:00:36;0.50;;;0.22;;
26963;SDS011;14521;48.148;-1.656;2022-09-29T05:03:58;2.13;;;0.30;;
26963;SDS011;14521;48.148;-1.656;2022-09-29T05:07:20;0.43;;;0.20;;
26963;SDS011;14521;48.148;-1.656;2022-09-29T05:10:43;0.85;;;0.20;;
26963;SDS011;14521;48.148;-1.656;2022-09-29T05:14:09;0.52;;;0.22;;
26963;SDS011;14521;48.148;-1.656;2022-09-29T05:17:32;0.95;;;0.30;;
26963;SDS011;14521;48.148;-1.656;2022-09-29T05:20:54;0.47;;;0.20;;
26963;SDS011;14521;48.148;-1.656;2022-09-29T05:24:36;0.63;;;0.30;;
26963;SDS011;14521;48.148;-1.656;2022-09-29T05:27:58;1.00;;;0.20;;
26963;SDS011;14521;48.148;-1.656;2022-09-29T05:31:21;1.30;;;0.30;;
26963;SDS011;14521;48.148;-1.656;2022-09-29T05:34:43;0.30;;;0.20;;
26963;SDS011;14521;48.148;-1.656;2022-09-29T05:38:12;1.50;;;0.45;;
26963;SDS011;14521;48.148;-1.656;2022-09-29T05:41:34;0.68;;;0.50;;
26963;SDS011;14521;48.148;-1.656;2022-09-29T05:44:56;2.65;;;2.45;;
26963;SDS011;14521;48.148;-1.656;2022-09-29T05:48:18;4.57;;;3.55;;
26963;SDS011;14521;48.148;-1.656;2022-09-29T05:51:40;3.97;;;3.30;;
26963;SDS011;14521;48.148;-1.656;2022-09-29T05:55:03;5.70;;;3.10;;
26963;SDS011;14521;48.148;-1.656;2022-09-29T05:58:26;5.07;;;3.28;;
26963;SDS011;14521;48.148;-1.656;2022-09-29T06:01:48;4.03;;;2.70;;
26963;SDS011;14521;48.148;-1.656;2022-09-29T06:05:10;4.15;;;2.60;;
26963;SDS011;14521;48.148;-1.656;2022-09-29T06:08:32;5.05;;;2.35;;
26963;SDS011;14521;48.148;-1.656;2022-09-29T06:11:55;6.10;;;2.03;;
26963;SDS011;14521;48.148;-1.656;2022-09-29T06:15:17;4.97;;;1.90;;
26963;SDS011;14521;48.148;-1.656;2022-09-29T06:18:39;3.75;;;1.70;;
26963;SDS011;14521;48.148;-1.656;2022-09-29T06:22:02;2.95;;;1.52;;
26963;SDS011;14521;48.148;-1.656;2022-09-29T06:25:24;2.55;;;1.60;;
26963;SDS011;14521;48.148;-1.656;2022-09-29T06:28:46;2.55;;;1.20;;
26963;SDS011;14521;48.148;-1.656;2022-09-29T06:32:08;3.33;;;1.52;;
26963;SDS011;14521;48.148;-1.656;2022-09-29T06:35:31;4.40;;;1.15;;
26963;SDS011;14521;48.148;-1.656;2022-09-29T06:39:12;4.47;;;1.50;;
26963;SDS011;14521;48.148;-1.656;2022-09-29T06:42:35;1.50;;;1.10;;
26963;SDS011;14521;48.148;-1.656;2022-09-29T06:45:58;4.57;;;1.70;;
26963;SDS011;14521;48.148;-1.656;2022-09-29T06:49:21;2.22;;;1.10;;
26963;SDS011;14521;48.148;-1.656;2022-09-29T06:52:44;1.60;;;1.13;;
26963;SDS011;14521;48.148;-1.656;2022-09-29T06:56:23;1.60;;;1.08;;
26963;SDS011;14521;48.148;-1.656;2022-09-29T06:59:45;1.35;;;0.88;;
26963;SDS011;14521;48.148;-1.656;2022-09-29T07:03:07;4.05;;;0.90;;
26963;SDS011;14521;48.148;-1.656;2022-09-29T07:06:30;2.28;;;0.90;;
26963;SDS011;14521;48.148;-1.656;2022-09-29T07:09:52;2.45;;;0.82;;
26963;SDS011;14521;48.148;-1.656;2022-09-29T07:13:14;1.50;;;0.80;;
26963;SDS011;14521;48.148;-1.656;2022-09-29T07:16:36;1.33;;;0.90;;
26963;SDS011;14521;48.148;-1.656;2022-09-29T07:19:59;4.25;;;0.80;;
26963;SDS011;14521;48.148;-1.656;2022-09-29T07:23:21;3.80;;;0.60;;
26963;SDS011;14521;48.148;-1.656;2022-09-29T07:26:43;3.67;;;0.75;;
26963;SDS011;14521;48.148;-1.656;2022-09-29T07:30:06;1.20;;;0.60;;
26963;SDS011;14521;48.148;-1.656;2022-09-29T07:33:29;1.60;;;0.80;;
26963;SDS011;14521;48.148;-1.656;2022-09-29T07:36:59;1.27;;;0.50;;
26963;SDS011;14521;48.148;-1.656;2022-09-29T07:40:22;2.55;;;0.90;;
26963;SDS011;14521;48.148;-1.656;2022-09-29T07:43:45;2.30;;;0.80;;
26963;SDS011;14521;48.148;-1.656;2022-09-29T07:47:07;1.67;;;0.60;;
26963;SDS011;14521;48.148;-1.656;2022-09-29T07:50:30;1.60;;;0.70;;
26963;SDS011;14521;48.148;-1.656;2022-09-29T07:53:52;1.23;;;0.68;;
26963;SDS011;14521;48.148;-1.656;2022-09-29T07:57:14;0.90;;;0.65;;
26963;SDS011;14521;48.148;-1.656;2022-09-29T08:00:36;1.08;;;0.70;;
26963;SDS011;14521;48.148;-1.656;2022-09-29T08:03:58;1.83;;;0.50;;
26963;SDS011;14521;48.148;-1.656;2022-09-29T08:07:22;2.53;;;0.52;;
26963;SDS011;14521;48.148;-1.656;2022-09-29T08:10:45;0.73;;;0.43;;
26963;SDS011;14521;48.148;-1.656;2022-09-29T08:14:14;1.30;;;0.40;;
26963;SDS011;14521;48.148;-1.656;2022-09-29T08:17:36;1.00;;;0.38;;
26963;SDS011;14521;48.148;-1.656;2022-09-29T08:20:58;1.88;;;0.68;;
26963;SDS011;14521;48.148;-1.656;2022-09-29T08:24:24;2.40;;;0.65;;
26963;SDS011;14521;48.148;-1.656;2022-09-29T08:27:47;1.77;;;0.50;;
26963;SDS011;14521;48.148;-1.656;2022-09-29T08:31:17;1.67;;;0.43;;
26963;SDS011;14521;48.148;-1.656;2022-09-29T08:34:41;1.20;;;0.57;;
26963;SDS011;14521;48.148;-1.656;2022-09-29T08:38:04;1.30;;;0.35;;
26963;SDS011;14521;48.148;-1.656;2022-09-29T08:45:18;3.22;;;0.85;;
26963;SDS011;14521;48.148;-1.656;2022-09-29T08:48:48;0.47;;;0.40;;
26963;SDS011;14521;48.148;-1.656;2022-09-29T08:52:20;1.20;;;0.50;;
26963;SDS011;14521;48.148;-1.656;2022-09-29T08:59:14;0.90;;;0.57;;
26963;SDS011;14521;48.148;-1.656;2022-09-29T09:10:08;0.60;;;0.50;;
26963;SDS011;14521;48.148;-1.656;2022-09-29T09:20:31;1.65;;;0.70;;
26963;SDS011;14521;48.148;-1.656;2022-09-29T09:24:14;3.30;;;0.65;;
26963;SDS011;14521;48.148;-1.656;2022-09-29T09:27:47;3.28;;;1.27;;
26963;SDS011;14521;48.148;-1.656;2022-09-29T09:34:41;1.27;;;0.68;;
26963;SDS011;14521;48.148;-1.656;2022-09-29T09:38:10;2.67;;;1.00;;
26963;SDS011;14521;48.148;-1.656;2022-09-29T09:41:41;2.33;;;0.90;;
26963;SDS011;14521;48.148;-1.656;2022-09-29T09:48:43;1.50;;;1.00;;
26963;SDS011;14521;48.148;-1.656;2022-09-29T09:52:19;2.50;;;1.00;;
26963;SDS011;14521;48.148;-1.656;2022-09-29T09:55:46;2.28;;;1.50;;
26963;SDS011;14521;48.148;-1.656;2022-09-29T10:03:15;1.88;;;1.70;;
26963;SDS011;14521;48.148;-1.656;2022-09-29T10:06:38;2.15;;;0.90;;
26963;SDS011;14521;48.148;-1.656;2022-09-29T10:10:01;0.93;;;0.65;;
26963;SDS011;14521;48.148;-1.656;2022-09-29T10:13:27;1.38;;;0.40;;
26963;SDS011;14521;48.148;-1.656;2022-09-29T10:16:58;1.38;;;0.50;;
26963;SDS011;14521;48.148;-1.656;2022-09-29T10:20:44;0.85;;;0.40;;
26963;SDS011;14521;48.148;-1.656;2022-09-29T10:24:19;0.98;;;0.40;;
26963;SDS011;14521;48.148;-1.656;2022-09-29T10:27:48;0.38;;;0.20;;
26963;SDS011;14521;48.148;-1.656;2022-09-29T10:31:14;0.40;;;0.30;;
26963;SDS011;14521;48.148;-1.656;2022-09-29T10:34:46;0.88;;;0.40;;
26963;SDS011;14521;48.148;-1.656;2022-09-29T10:38:25;0.40;;;0.30;;
26963;SDS011;14521;48.148;-1.656;2022-09-29T10:48:38;0.93;;;0.20;;
26963;SDS011;14521;48.148;-1.656;2022-09-29T10:52:05;0.63;;;0.30;;
26963;SDS011;14521;48.148;-1.656;2022-09-29T10:55:46;1.00;;;0.30;;
26963;SDS011;14521;48.148;-1.656;2022-09-29T10:59:12;4.18;;;0.45;;
26963;SDS011;14521;48.148;-1.656;2022-09-29T11:02:36;1.02;;;0.30;;
26963;SDS011;14521;48.148;-1.656;2022-09-29T11:06:02;0.47;;;0.25;;
26963;SDS011;14521;48.148;-1.656;2022-09-29T11:09:30;1.23;;;0.30;;
26963;SDS011;14521;48.148;-1.656;2022-09-29T11:13:02;1.00;;;0.30;;
26963;SDS011;14521;48.148;-1.656;2022-09-29T11:16:51;2.33;;;0.30;;
26963;SDS011;14521;48.148;-1.656;2022-09-29T11:20:15;0.73;;;0.30;;
26963;SDS011;14521;48.148;-1.656;2022-09-29T11:23:40;0.47;;;0.32;;
26963;SDS011;14521;48.148;-1.656;2022-09-29T11:27:28;0.52;;;0.22;;
26963;SDS011;14521;48.148;-1.656;2022-09-29T11:31:17;1.00;;;0.30;;
26963;SDS011;14521;48.148;-1.656;2022-09-29T11:57:53;0.73;;;0.30;;
26963;SDS011;14521;48.148;-1.656;2022-09-29T12:16:06;0.40;;;0.20;;
26963;SDS011;14521;48.148;-1.656;2022-09-29T12:19:35;0.95;;;0.30;;
26963;SDS011;14521;48.148;-1.656;2022-09-29T12:23:01;0.38;;;0.25;;
26963;SDS011;14521;48.148;-1.656;2022-09-29T12:26:28;0.70;;;0.30;;
26963;SDS011;14521;48.148;-1.656;2022-09-29T12:29:54;0.50;;;0.30;;
26963;SDS011;14521;48.148;-1.656;2022-09-29T12:33:21;0.30;;;0.30;;
26963;SDS011;14521;48.148;-1.656;2022-09-29T12:41:09;0.55;;;0.30;;
26963;SDS011;14521;48.148;-1.656;2022-09-29T12:44:43;0.35;;;0.20;;
26963;SDS011;14521;48.148;-1.656;2022-09-29T12:52:01;1.25;;;0.32;;
26963;SDS011;14521;48.148;-1.656;2022-09-29T12:55:28;0.25;;;0.15;;
26963;SDS011;14521;48.148;-1.656;2022-09-29T12:59:45;0.82;;;0.45;;
26963;SDS011;14521;48.148;-1.656;2022-09-29T13:18:02;0.20;;;0.20;;
26963;SDS011;14521;48.148;-1.656;2022-09-29T13:28:50;0.45;;;0.45;;
26963;SDS011;14521;48.148;-1.656;2022-09-29T13:32:18;0.77;;;0.50;;
26963;SDS011;14521;48.148;-1.656;2022-09-29T13:35:45;0.60;;;0.60;;
26963;SDS011;14521;48.148;-1.656;2022-09-29T13:39:18;0.70;;;0.70;;
26963;SDS011;14521;48.148;-1.656;2022-09-29T13:42:44;0.73;;;0.60;;
26963;SDS011;14521;48.148;-1.656;2022-09-29T13:49:48;0.93;;;0.75;;
26963;SDS011;14521;48.148;-1.656;2022-09-29T14:00:35;0.70;;;0.65;;
26963;SDS011;14521;48.148;-1.656;2022-09-29T14:11:50;1.05;;;0.77;;
26963;SDS011;14521;48.148;-1.656;2022-09-29T14:15:15;1.08;;;0.77;;
26963;SDS011;14521;48.148;-1.656;2022-09-29T14:23:08;2.22;;;0.90;;
26963;SDS011;14521;48.148;-1.656;2022-09-29T14:26:04;0.73;;;0.60;;
26963;SDS011;14521;48.148;-1.656;2022-09-29T14:29:47;0.52;;;0.52;;
26963;SDS011;14521;48.148;-1.656;2022-09-29T14:37:14;1.52;;;0.80;;
26963;SDS011;14521;48.148;-1.656;2022-09-29T14:41:42;1.92;;;0.65;;
26963;SDS011;14521;48.148;-1.656;2022-09-29T14:44:34;1.00;;;0.40;;
26963;SDS011;14521;48.148;-1.656;2022-09-29T15:00:00;2.00;;;0.50;;
26963;SDS011;14521;48.148;-1.656;2022-09-29T15:03:28;0.60;;;0.60;;
26963;SDS011;14521;48.148;-1.656;2022-09-29T15:06:55;0.55;;;0.50;;
26963;SDS011;14521;48.148;-1.656;2022-09-29T15:10:28;1.20;;;0.68;;
26963;SDS011;14521;48.148;-1.656;2022-09-29T15:13:53;0.40;;;0.40;;
26963;SDS011;14521;48.148;-1.656;2022-09-29T15:29:04;1.08;;;0.38;;
26963;SDS011;14521;48.148;-1.656;2022-09-29T15:32:29;0.52;;;0.40;;
26963;SDS011;14521;48.148;-1.656;2022-09-29T15:35:56;0.57;;;0.40;;
26963;SDS011;14521;48.148;-1.656;2022-09-29T15:39:41;0.75;;;0.50;;
26963;SDS011;14521;48.148;-1.656;2022-09-29T15:43:24;0.40;;;0.40;;
26963;SDS011;14521;48.148;-1.656;2022-09-29T15:46:50;0.35;;;0.35;;
26963;SDS011;14521;48.148;-1.656;2022-09-29T15:50:20;1.92;;;0.47;;
26963;SDS011;14521;48.148;-1.656;2022-09-29T15:53:45;0.60;;;0.35;;
26963;SDS011;14521;48.148;-1.656;2022-09-29T15:57:09;1.65;;;0.30;;
26963;SDS011;14521;48.148;-1.656;2022-09-29T16:01:19;0.63;;;0.20;;
26963;SDS011;14521;48.148;-1.656;2022-09-29T16:04:42;1.85;;;0.40;;
26963;SDS011;14521;48.148;-1.656;2022-09-29T16:08:06;0.20;;;0.13;;
26963;SDS011;14521;48.148;-1.656;2022-09-29T16:11:43;0.80;;;0.30;;
26963;SDS011;14521;48.148;-1.656;2022-09-29T16:15:06;2.65;;;0.30;;
26963;SDS011;14521;48.148;-1.656;2022-09-29T16:18:45;4.15;;;0.30;;
26963;SDS011;14521;48.148;-1.656;2022-09-29T16:22:17;0.73;;;0.10;;
26963;SDS011;14521;48.148;-1.656;2022-09-29T16:25:44;9.40;;;0.47;;
26963;SDS011;14521;48.148;-1.656;2022-09-29T16:39:15;3.08;;;0.20;;
26963;SDS011;14521;48.148;-1.656;2022-09-29T16:42:40;2.08;;;0.25;;
26963;SDS011;14521;48.148;-1.656;2022-09-29T16:46:12;1.15;;;0.40;;
26963;SDS011;14521;48.148;-1.656;2022-09-29T16:53:18;1.00;;;0.35;;
26963;SDS011;14521;48.148;-1.656;2022-09-29T16:57:08;0.40;;;0.15;;
26963;SDS011;14521;48.148;-1.656;2022-09-29T17:00:48;2.63;;;0.22;;
26963;SDS011;14521;48.148;-1.656;2022-09-29T17:04:10;0.70;;;0.20;;
26963;SDS011;14521;48.148;-1.656;2022-09-29T17:07:36;4.47;;;0.20;;
26963;SDS011;14521;48.148;-1.656;2022-09-29T17:11:00;2.67;;;0.60;;
26963;SDS011;14521;48.148;-1.656;2022-09-29T17:14:25;0.38;;;0.30;;
26963;SDS011;14521;48.148;-1.656;2022-09-29T17:17:50;1.08;;;0.30;;
26963;SDS011;14521;48.148;-1.656;2022-09-29T17:21:14;0.63;;;0.20;;
26963;SDS011;14521;48.148;-1.656;2022-09-29T17:24:36;1.52;;;0.32;;
26963;SDS011;14521;48.148;-1.656;2022-09-29T17:27:58;0.77;;;0.30;;
26963;SDS011;14521;48.148;-1.656;2022-09-29T17:31:33;1.03;;;0.40;;
26963;SDS011;14521;48.148;-1.656;2022-09-29T17:34:55;0.20;;;0.20;;
26963;SDS011;14521;48.148;-1.656;2022-09-29T17:38:17;0.55;;;0.30;;
26963;SDS011;14521;48.148;-1.656;2022-09-29T17:41:40;1.52;;;0.20;;
26963;SDS011;14521;48.148;-1.656;2022-09-29T17:45:06;1.52;;;0.40;;
26963;SDS011;14521;48.148;-1.656;2022-09-29T17:48:29;0.77;;;0.35;;
26963;SDS011;14521;48.148;-1.656;2022-09-29T17:51:53;0.30;;;0.30;;
26963;SDS011;14521;48.148;-1.656;2022-09-29T17:55:15;0.38;;;0.35;;
26963;SDS011;14521;48.148;-1.656;2022-09-29T17:58:38;1.38;;;0.40;;
26963;SDS011;14521;48.148;-1.656;2022-09-29T18:02:00;0.80;;;0.40;;
26963;SDS011;14521;48.148;-1.656;2022-09-29T18:05:24;0.45;;;0.40;;
26963;SDS011;14521;48.148;-1.656;2022-09-29T18:12:14;3.65;;;0.57;;
26963;SDS011;14521;48.148;-1.656;2022-09-29T18:15:37;1.10;;;0.38;;
26963;SDS011;14521;48.148;-1.656;2022-09-29T18:18:59;0.45;;;0.40;;
26963;SDS011;14521;48.148;-1.656;2022-09-29T18:22:22;0.80;;;0.40;;
26963;SDS011;14521;48.148;-1.656;2022-09-29T18:25:45;0.90;;;0.57;;
26963;SDS011;14521;48.148;-1.656;2022-09-29T18:29:13;0.82;;;0.40;;
26963;SDS011;14521;48.148;-1.656;2022-09-29T18:32:37;1.38;;;0.50;;
26963;SDS011;14521;48.148;-1.656;2022-09-29T18:35:59;0.98;;;0.60;;
26963;SDS011;14521;48.148;-1.656;2022-09-29T18:39:22;0.73;;;0.30;;
26963;SDS011;14521;48.148;-1.656;2022-09-29T18:42:45;0.52;;;0.30;;
26963;SDS011;14521;48.148;-1.656;2022-09-29T18:46:09;0.55;;;0.32;;
26963;SDS011;14521;48.148;-1.656;2022-09-29T18:49:32;2.55;;;0.30;;
26963;SDS011;14521;48.148;-1.656;2022-09-29T18:52:54;3.70;;;0.50;;
26963;SDS011;14521;48.148;-1.656;2022-09-29T18:56:16;0.50;;;0.25;;
26963;SDS011;14521;48.148;-1.656;2022-09-29T18:59:39;1.55;;;0.20;;
26963;SDS011;14521;48.148;-1.656;2022-09-29T19:03:01;0.77;;;0.52;;
26963;SDS011;14521;48.148;-1.656;2022-09-29T19:06:25;1.27;;;0.43;;
26963;SDS011;14521;48.148;-1.656;2022-09-29T19:09:49;0.43;;;0.40;;
26963;SDS011;14521;48.148;-1.656;2022-09-29T19:13:11;0.30;;;0.30;;
26963;SDS011;14521;48.148;-1.656;2022-09-29T19:16:35;0.80;;;0.53;;
26963;SDS011;14521;48.148;-1.656;2022-09-29T19:19:58;1.05;;;0.40;;
26963;SDS011;14521;48.148;-1.656;2022-09-29T19:23:21;0.30;;;0.30;;
26963;SDS011;14521;48.148;-1.656;2022-09-29T19:26:45;0.50;;;0.50;;
26963;SDS011;14521;48.148;-1.656;2022-09-29T19:30:08;0.88;;;0.50;;
26963;SDS011;14521;48.148;-1.656;2022-09-29T19:33:31;0.95;;;0.40;;
26963;SDS011;14521;48.148;-1.656;2022-09-29T19:36:54;3.97;;;0.70;;
26963;SDS011;14521;48.148;-1.656;2022-09-29T19:40:18;0.30;;;0.20;;
26963;SDS011;14521;48.148;-1.656;2022-09-29T19:43:43;0.80;;;0.40;;
26963;SDS011;14521;48.148;-1.656;2022-09-29T19:47:06;1.02;;;0.30;;
26963;SDS011;14521;48.148;-1.656;2022-09-29T19:50:29;0.93;;;0.30;;
26963;SDS011;14521;48.148;-1.656;2022-09-29T19:54:10;0.90;;;0.30;;
26963;SDS011;14521;48.148;-1.656;2022-09-29T19:57:34;2.03;;;0.40;;
26963;SDS011;14521;48.148;-1.656;2022-09-29T20:01:01;0.80;;;0.30;;
26963;SDS011;14521;48.148;-1.656;2022-09-29T20:04:26;1.90;;;0.38;;
26963;SDS011;14521;48.148;-1.656;2022-09-29T20:07:51;1.15;;;0.65;;
26963;SDS011;14521;48.148;-1.656;2022-09-29T20:11:13;0.40;;;0.40;;
26963;SDS011;14521;48.148;-1.656;2022-09-29T20:14:35;1.17;;;0.50;;
26963;SDS011;14521;48.148;-1.656;2022-09-29T20:17:59;1.02;;;0.57;;
26963;SDS011;14521;48.148;-1.656;2022-09-29T20:21:22;2.17;;;0.57;;
26963;SDS011;14521;48.148;-1.656;2022-09-29T20:24:45;5.78;;;0.50;;
26963;SDS011;14521;48.148;-1.656;2022-09-29T20:28:08;1.45;;;0.80;;
26963;SDS011;14521;48.148;-1.656;2022-09-29T20:31:36;1.80;;;0.50;;
26963;SDS011;14521;48.148;-1.656;2022-09-29T20:34:59;1.10;;;0.50;;
26963;SDS011;14521;48.148;-1.656;2022-09-29T20:38:21;0.43;;;0.38;;
26963;SDS011;14521;48.148;-1.656;2022-09-29T20:41:43;1.75;;;0.45;;
26963;SDS011;14521;48.148;-1.656;2022-09-29T20:45:06;0.77;;;0.60;;
26963;SDS011;14521;48.148;-1.656;2022-09-29T20:48:29;0.47;;;0.43;;
26963;SDS011;14521;48.148;-1.656;2022-09-29T20:51:52;0.82;;;0.40;;
26963;SDS011;14521;48.148;-1.656;2022-09-29T20:55:15;1.13;;;0.52;;
26963;SDS011;14521;48.148;-1.656;2022-09-29T20:58:39;1.05;;;0.50;;
26963;SDS011;14521;48.148;-1.656;2022-09-29T21:02:04;0.85;;;0.40;;
26963;SDS011;14521;48.148;-1.656;2022-09-29T21:05:29;0.70;;;0.40;;
26963;SDS011;14521;48.148;-1.656;2022-09-29T21:08:51;1.35;;;0.40;;
26963;SDS011;14521;48.148;-1.656;2022-09-29T21:12:15;1.17;;;0.70;;
26963;SDS011;14521;48.148;-1.656;2022-09-29T21:15:37;0.43;;;0.43;;
26963;SDS011;14521;48.148;-1.656;2022-09-29T21:18:59;1.33;;;0.55;;
26963;SDS011;14521;48.148;-1.656;2022-09-29T21:22:22;0.55;;;0.50;;
26963;SDS011;14521;48.148;-1.656;2022-09-29T21:25:48;0.57;;;0.55;;
26963;SDS011;14521;48.148;-1.656;2022-09-29T21:29:26;1.50;;;0.47;;
26963;SDS011;14521;48.148;-1.656;2022-09-29T21:32:49;0.40;;;0.40;;
26963;SDS011;14521;48.148;-1.656;2022-09-29T21:36:12;1.20;;;0.50;;
26963;SDS011;14521;48.148;-1.656;2022-09-29T21:39:35;0.98;;;0.50;;
26963;SDS011;14521;48.148;-1.656;2022-09-29T21:42:58;0.50;;;0.50;;
26963;SDS011;14521;48.148;-1.656;2022-09-29T21:46:21;0.98;;;0.50;;
26963;SDS011;14521;48.148;-1.656;2022-09-29T21:49:45;0.88;;;0.88;;
26963;SDS011;14521;48.148;-1.656;2022-09-29T21:53:07;1.65;;;0.60;;
26963;SDS011;14521;48.148;-1.656;2022-09-29T21:56:31;6.38;;;0.93;;
26963;SDS011;14521;48.148;-1.656;2022-09-29T21:59:56;0.65;;;0.57;;
26963;SDS011;14521;48.148;-1.656;2022-09-29T22:03:19;0.80;;;0.68;;
26963;SDS011;14521;48.148;-1.656;2022-09-29T22:06:41;0.85;;;0.70;;
26963;SDS011;14521;48.148;-1.656;2022-09-29T22:10:05;0.70;;;0.70;;
26963;SDS011;14521;48.148;-1.656;2022-09-29T22:13:28;0.88;;;0.73;;
26963;SDS011;14521;48.148;-1.656;2022-09-29T22:16:50;1.27;;;0.65;;
26963;SDS011;14521;48.148;-1.656;2022-09-29T22:20:13;0.70;;;0.70;;
26963;SDS011;14521;48.148;-1.656;2022-09-29T22:23:35;1.67;;;0.70;;
26963;SDS011;14521;48.148;-1.656;2022-09-29T22:26:58;5.18;;;0.90;;
26963;SDS011;14521;48.148;-1.656;2022-09-29T22:30:20;1.88;;;0.80;;
26963;SDS011;14521;48.148;-1.656;2022-09-29T22:33:43;0.65;;;0.65;;
26963;SDS011;14521;48.148;-1.656;2022-09-29T22:37:06;0.90;;;0.60;;
26963;SDS011;14521;48.148;-1.656;2022-09-29T22:40:28;2.03;;;0.80;;
26963;SDS011;14521;48.148;-1.656;2022-09-29T22:43:54;1.05;;;0.90;;
26963;SDS011;14521;48.148;-1.656;2022-09-29T22:47:17;0.77;;;0.77;;
26963;SDS011;14521;48.148;-1.656;2022-09-29T22:50:42;1.33;;;0.80;;
26963;SDS011;14521;48.148;-1.656;2022-09-29T22:54:05;1.20;;;0.80;;
26963;SDS011;14521;48.148;-1.656;2022-09-29T22:57:28;1.15;;;0.70;;
26963;SDS011;14521;48.148;-1.656;2022-09-29T23:01:07;1.20;;;0.70;;
26963;SDS011;14521;48.148;-1.656;2022-09-29T23:04:31;0.77;;;0.60;;
26963;SDS011;14521;48.148;-1.656;2022-09-29T23:07:54;0.95;;;0.70;;
26963;SDS011;14521;48.148;-1.656;2022-09-29T23:11:17;1.17;;;0.60;;
26963;SDS011;14521;48.148;-1.656;2022-09-29T23:14:40;0.93;;;0.93;;
26963;SDS011;14521;48.148;-1.656;2022-09-29T23:18:02;0.60;;;0.60;;
26963;SDS011;14521;48.148;-1.656;2022-09-29T23:21:24;0.70;;;0.70;;
26963;SDS011;14521;48.148;-1.656;2022-09-29T23:24:47;1.15;;;0.70;;
26963;SDS011;14521;48.148;-1.656;2022-09-29T23:28:09;0.65;;;0.65;;
26963;SDS011;14521;48.148;-1.656;2022-09-29T23:31:32;0.75;;;0.75;;
26963;SDS011;14521;48.148;-1.656;2022-09-29T23:34:54;0.70;;;0.70;;
26963;SDS011;14521;48.148;-1.656;2022-09-29T23:38:16;0.60;;;0.60;;